createdAt,value
2023-01-17T00:00:34.876Z,2.72
2023-01-17T00:03:01.513Z,2.66
2023-01-17T00:05:47.051Z,2.61
2023-01-17T00:08:32.575Z,2.53
2023-01-17T00:10:59.150Z,2.48
2023-01-17T00:13:25.678Z,2.44
2023-01-17T00:15:53.131Z,2.41
2023-01-17T00:18:19.815Z,2.39
2023-01-17T00:21:06.684Z,2.38
2023-01-17T00:23:41.824Z,2.37
2023-01-17T00:26:18.073Z,2.37
2023-01-17T00:28:45.513Z,2.38
2023-01-17T00:31:14.284Z,2.38
2023-01-17T00:33:40.844Z,2.41
2023-01-17T00:36:07.973Z,2.43
2023-01-17T00:38:37.281Z,2.52
2023-01-17T00:41:06.243Z,2.52
2023-01-17T00:43:51.531Z,2.55
2023-01-17T00:46:37.607Z,2.57
2023-01-17T00:49:23.806Z,2.51
2023-01-17T00:52:09.005Z,2.52
2023-01-17T00:54:56.732Z,2.51
2023-01-17T00:57:41.485Z,2.49
2023-01-17T01:00:26.849Z,2.43
2023-01-17T01:03:12.156Z,2.44
2023-01-17T01:05:57.661Z,2.41
2023-01-17T01:08:45.296Z,2.43
2023-01-17T01:11:35.125Z,2.41
2023-01-17T01:14:20.940Z,2.41
2023-01-17T01:17:06.346Z,2.45
2023-01-17T01:19:51.693Z,2.46
2023-01-17T01:22:36.556Z,2.49
2023-01-17T01:25:21.683Z,2.49
2023-01-17T01:28:06.548Z,2.49
2023-01-17T01:30:51.604Z,2.53
2023-01-17T01:33:21.133Z,2.53
2023-01-17T01:35:53.853Z,2.56
2023-01-17T01:38:26.175Z,2.59
2023-01-17T01:40:55.400Z,2.56
2023-01-17T01:43:53.397Z,2.57
2023-01-17T01:46:25.726Z,2.58
2023-01-17T01:49:03.256Z,2.61
2023-01-17T01:51:34.974Z,2.62
2023-01-17T01:54:10.387Z,2.66
2023-01-17T01:56:38.181Z,2.70
2023-01-17T01:59:09.725Z,2.70
2023-01-17T02:01:36.728Z,2.66
2023-01-17T02:04:04.271Z,2.69
2023-01-17T02:06:37.231Z,2.69
2023-01-17T02:09:08.448Z,2.68
2023-01-17T02:11:37.338Z,2.69
2023-01-17T02:14:04.348Z,2.68
2023-01-17T02:16:33.813Z,2.70
2023-01-17T02:19:11.883Z,2.69
2023-01-17T02:21:49.986Z,2.70
2023-01-17T02:25:02.954Z,2.71
2023-01-17T02:28:15.104Z,2.71
2023-01-17T02:30:48.365Z,2.71
2023-01-17T02:33:17.741Z,2.72
2023-01-17T02:36:07.195Z,2.72
2023-01-17T02:38:39.902Z,2.73
2023-01-17T02:41:13.519Z,2.74
2023-01-17T02:43:41.332Z,2.77
2023-01-17T02:46:09.646Z,2.70
2023-01-17T02:48:37.650Z,2.71
2023-01-17T02:51:22.392Z,2.74
2023-01-17T02:54:13.882Z,2.71
2023-01-17T02:56:53.943Z,2.70
2023-01-17T02:59:43.381Z,2.70
2023-01-17T03:02:22.105Z,2.69
2023-01-17T03:04:56.675Z,2.69
2023-01-17T03:07:26.929Z,2.68
2023-01-17T03:09:59.936Z,2.70
2023-01-17T03:12:30.968Z,2.65
2023-01-17T03:14:57.710Z,2.62
2023-01-17T03:17:28.251Z,2.64
2023-01-17T03:19:54.830Z,2.66
2023-01-17T03:22:21.303Z,2.68
2023-01-17T03:24:48.131Z,2.69
2023-01-17T03:27:14.779Z,2.66
2023-01-17T03:29:41.260Z,2.70
2023-01-17T03:32:07.878Z,2.69
2023-01-17T03:34:34.397Z,2.70
2023-01-17T03:37:00.800Z,2.71
2023-01-17T03:39:27.243Z,2.70
2023-01-17T03:41:53.640Z,2.68
2023-01-17T03:44:20.102Z,2.71
2023-01-17T03:46:46.502Z,2.70
2023-01-17T03:49:13.065Z,2.65
2023-01-17T03:51:39.617Z,2.58
2023-01-17T03:54:06.312Z,2.45
2023-01-17T03:56:32.735Z,2.34
2023-01-17T03:58:59.275Z,2.22
2023-01-17T04:01:25.969Z,2.11
2023-01-17T04:03:52.614Z,2.00
2023-01-17T04:06:19.121Z,1.88
2023-01-17T04:08:45.577Z,1.90
2023-01-17T04:11:11.938Z,1.88
2023-01-17T04:13:38.366Z,1.86
2023-01-17T04:16:06.012Z,1.77
2023-01-17T04:18:32.449Z,1.75
2023-01-17T04:20:58.937Z,1.73
2023-01-17T04:23:25.503Z,1.74
2023-01-17T04:25:51.915Z,1.71
2023-01-17T04:28:18.435Z,1.72
2023-01-17T04:30:44.958Z,1.73
2023-01-17T04:33:11.389Z,1.70
2023-01-17T04:35:41.072Z,1.68
2023-01-17T04:38:10.666Z,1.63
2023-01-17T04:40:37.134Z,1.63
2023-01-17T04:43:03.637Z,1.67
2023-01-17T04:45:30.196Z,1.66
2023-01-17T04:48:01.960Z,1.63
2023-01-17T04:50:28.471Z,1.67
2023-01-17T04:52:55.018Z,1.64
2023-01-17T04:55:21.634Z,1.77
2023-01-17T04:57:48.444Z,1.72
2023-01-17T05:00:15.612Z,1.79
2023-01-17T05:02:42.216Z,1.77
2023-01-17T05:05:10.059Z,1.82
2023-01-17T05:07:36.612Z,1.87
2023-01-17T05:10:04.431Z,1.83
2023-01-17T05:12:31.477Z,1.83
2023-01-17T05:14:58.084Z,1.82
2023-01-17T05:17:24.778Z,1.76
2023-01-17T05:19:51.738Z,1.72
2023-01-17T05:22:18.195Z,1.67
2023-01-17T05:24:46.296Z,1.64
2023-01-17T05:27:14.057Z,1.62
2023-01-17T05:29:41.315Z,1.54
2023-01-17T05:32:08.059Z,1.60
2023-01-17T05:34:35.151Z,1.59
2023-01-17T05:37:01.779Z,1.58
2023-01-17T05:39:28.298Z,1.58
2023-01-17T05:41:55.884Z,1.58
2023-01-17T05:44:22.346Z,1.56
2023-01-17T05:46:51.693Z,1.55
2023-01-17T05:49:18.089Z,1.53
2023-01-17T05:51:44.510Z,1.49
2023-01-17T05:54:11.031Z,1.53
2023-01-17T05:56:37.493Z,1.54
2023-01-17T05:59:04.006Z,1.55
2023-01-17T06:01:33.507Z,1.56
2023-01-17T06:03:59.944Z,1.56
2023-01-17T06:06:26.407Z,1.54
2023-01-17T06:08:52.931Z,1.54
2023-01-17T06:11:19.571Z,1.46
2023-01-17T06:13:48.702Z,1.42
2023-01-17T06:16:16.983Z,1.43
2023-01-17T06:18:43.399Z,1.31
2023-01-17T06:21:10.269Z,1.32
2023-01-17T06:23:36.867Z,1.30
2023-01-17T06:26:04.628Z,1.25
2023-01-17T06:28:31.470Z,1.26
2023-01-17T06:30:59.788Z,1.30
2023-01-17T06:33:26.432Z,1.25
2023-01-17T06:35:53.684Z,1.24
2023-01-17T06:38:20.341Z,1.16
2023-01-17T06:40:46.981Z,1.11
2023-01-17T06:43:13.536Z,1.09
2023-01-17T06:45:40.073Z,1.04
2023-01-17T06:48:07.177Z,1.00
2023-01-17T06:50:34.340Z,0.95
2023-01-17T06:53:03.615Z,0.94
2023-01-17T06:55:33.533Z,0.94
2023-01-17T06:58:00.753Z,0.92
2023-01-17T07:00:27.604Z,0.91
2023-01-17T07:02:54.461Z,0.87
2023-01-17T07:05:21.370Z,0.83
2023-01-17T07:07:48.401Z,0.82
2023-01-17T07:10:15.518Z,0.81
2023-01-17T07:12:41.939Z,0.82
2023-01-17T07:15:09.226Z,0.88
2023-01-17T07:17:35.828Z,0.89
2023-01-17T07:20:09.127Z,0.94
2023-01-17T07:22:37.590Z,0.93
2023-01-17T07:25:09.220Z,0.93
2023-01-17T07:27:38.021Z,0.96
2023-01-17T07:30:04.832Z,0.92
2023-01-17T07:32:31.391Z,0.93
2023-01-17T07:34:58.163Z,0.95
2023-01-17T07:37:27.940Z,0.95
2023-01-17T07:39:57.143Z,0.99
2023-01-17T07:42:24.365Z,0.98
2023-01-17T07:44:50.863Z,1.00
2023-01-17T07:47:17.353Z,1.01
2023-01-17T07:49:43.890Z,0.97
2023-01-17T07:52:10.357Z,0.93
2023-01-17T07:54:36.894Z,0.95
2023-01-17T07:57:03.837Z,1.01
2023-01-17T07:59:30.392Z,1.02
2023-01-17T08:01:57.003Z,0.98
2023-01-17T08:04:26.212Z,1.01
2023-01-17T08:06:54.955Z,0.97
2023-01-17T08:09:21.880Z,1.00
2023-01-17T08:11:48.360Z,1.04
2023-01-17T08:14:14.868Z,1.04
2023-01-17T08:16:41.940Z,1.08
2023-01-17T08:19:08.744Z,1.12
2023-01-17T08:21:35.158Z,1.20
2023-01-17T08:24:01.759Z,1.28
2023-01-17T08:26:28.286Z,1.34
2023-01-17T08:28:56.821Z,1.43
2023-01-17T08:31:26.110Z,1.49
2023-01-17T08:33:52.648Z,1.60
2023-01-17T08:36:19.144Z,1.71
2023-01-17T08:38:45.571Z,1.80
2023-01-17T08:41:13.008Z,1.87
2023-01-17T08:43:39.470Z,1.92
2023-01-17T08:46:06.479Z,1.95
2023-01-17T08:48:32.998Z,1.95
2023-01-17T08:51:02.909Z,1.99
2023-01-17T08:53:29.409Z,2.07
2023-01-17T08:56:03.222Z,2.17
2023-01-17T08:58:31.327Z,2.24
2023-01-17T09:01:05.674Z,2.32
2023-01-17T09:03:33.954Z,2.37
2023-01-17T09:06:12.247Z,2.42
2023-01-17T09:08:39.152Z,2.40
2023-01-17T09:11:11.929Z,2.44
2023-01-17T09:13:39.424Z,2.43
2023-01-17T09:16:06.565Z,2.40
2023-01-17T09:18:34.673Z,2.37
2023-01-17T09:21:13.815Z,2.39
2023-01-17T09:23:40.775Z,2.39
2023-01-17T09:26:07.460Z,2.44
2023-01-17T09:28:40.872Z,2.42
2023-01-17T09:31:08.653Z,2.45
2023-01-17T09:33:35.391Z,2.41
2023-01-17T09:36:04.292Z,2.36
2023-01-17T09:38:31.527Z,2.37
2023-01-17T09:40:58.522Z,2.37
2023-01-17T09:43:45.037Z,2.39
2023-01-17T09:46:22.619Z,2.46
2023-01-17T09:49:23.987Z,2.53
2023-01-17T09:51:50.491Z,2.58
2023-01-17T09:54:22.092Z,2.64
2023-01-17T09:57:00.467Z,2.71
2023-01-17T10:00:02.900Z,2.80
2023-01-17T10:02:48.869Z,2.93
2023-01-17T10:05:34.025Z,3.06
2023-01-17T10:08:13.524Z,3.17
2023-01-17T10:10:58.842Z,3.32
2023-01-17T10:13:58.936Z,3.44
2023-01-17T10:16:34.367Z,3.57
2023-01-17T10:19:28.217Z,3.72
2023-01-17T10:22:07.459Z,3.85
2023-01-17T10:24:51.856Z,3.91
2023-01-17T10:27:38.726Z,4.00
2023-01-17T10:30:36.500Z,4.15
2023-01-17T10:33:14.399Z,4.25
2023-01-17T10:35:51.663Z,4.35
2023-01-17T10:38:20.679Z,4.47
2023-01-17T10:40:54.880Z,4.57
2023-01-17T10:43:31.456Z,4.69
2023-01-17T10:45:58.157Z,4.86
2023-01-17T10:48:38.777Z,5.06
2023-01-17T10:51:25.131Z,5.21
2023-01-17T10:54:32.454Z,5.37
2023-01-17T10:56:59.294Z,5.43
2023-01-17T10:59:33.481Z,5.57
2023-01-17T11:02:06.877Z,5.67
2023-01-17T11:04:40.233Z,5.72
2023-01-17T11:07:12.371Z,5.93
2023-01-17T11:09:49.807Z,6.08
2023-01-17T11:12:37.617Z,6.06
2023-01-17T11:15:22.697Z,6.21
2023-01-17T11:18:06.441Z,6.01
2023-01-17T11:20:38.184Z,6.19
2023-01-17T11:23:21.470Z,6.33
2023-01-17T11:25:58.083Z,6.36
2023-01-17T11:28:30.148Z,6.61
2023-01-17T11:31:03.475Z,6.48
2023-01-17T11:33:45.921Z,6.37
2023-01-17T11:36:19.511Z,6.23
2023-01-17T11:39:18.254Z,6.15
2023-01-17T11:41:47.627Z,6.33
2023-01-17T11:44:28.144Z,6.41
2023-01-17T11:47:12.943Z,6.17
2023-01-17T11:49:41.140Z,6.33
2023-01-17T11:52:18.261Z,6.58
2023-01-17T11:54:47.825Z,6.74
2023-01-17T11:57:29.723Z,6.68
2023-01-17T12:00:24.233Z,6.65
2023-01-17T12:03:03.944Z,6.55
2023-01-17T12:05:54.344Z,6.29
2023-01-17T12:08:51.330Z,6.21
2023-01-17T12:11:32.001Z,6.33
2023-01-17T12:14:24.302Z,6.40
2023-01-17T12:17:08.881Z,6.58
2023-01-17T12:20:00.857Z,6.81
2023-01-17T12:22:27.446Z,6.96
2023-01-17T12:25:24.141Z,7.21
2023-01-17T12:27:56.752Z,7.22
2023-01-17T12:30:23.208Z,7.16
2023-01-17T12:33:08.308Z,7.04
2023-01-17T12:35:50.798Z,6.78
2023-01-17T12:38:32.254Z,6.55
2023-01-17T12:41:35.474Z,6.42
2023-01-17T12:44:16.552Z,6.43
2023-01-17T12:46:50.760Z,6.37
2023-01-17T12:49:32.467Z,6.28
2023-01-17T12:52:45.064Z,6.17
2023-01-17T12:55:27.235Z,6.14
2023-01-17T12:58:04.172Z,6.06
2023-01-17T13:00:39.645Z,5.97
2023-01-17T13:03:36.566Z,5.87
2023-01-17T13:06:06.119Z,5.85
2023-01-17T13:08:49.718Z,5.83
2023-01-17T13:11:43.709Z,5.76
2023-01-17T13:14:10.808Z,5.69
2023-01-17T13:16:50.075Z,5.54
2023-01-17T13:19:44.305Z,5.43
2023-01-17T13:22:21.871Z,5.36
2023-01-17T13:25:06.616Z,5.34
2023-01-17T13:28:00.380Z,5.30
2023-01-17T13:30:43.318Z,5.22
2023-01-17T13:33:28.243Z,5.18
2023-01-17T13:36:21.515Z,5.13
2023-01-17T13:39:13.869Z,5.06
2023-01-17T13:41:52.285Z,5.02
2023-01-17T13:44:21.606Z,4.98
2023-01-17T13:47:16.248Z,4.92
2023-01-17T13:49:56.394Z,4.91
2023-01-17T13:52:25.776Z,4.88
2023-01-17T13:54:52.194Z,4.88
2023-01-17T13:57:29.381Z,4.84
2023-01-17T13:59:57.527Z,4.83
2023-01-17T14:02:33.144Z,4.79
2023-01-17T14:05:15.091Z,4.76
2023-01-17T14:08:02.193Z,4.76
2023-01-17T14:10:28.714Z,4.75
2023-01-17T14:12:56.094Z,4.75
2023-01-17T14:15:27.003Z,4.80
2023-01-17T14:18:04.607Z,4.73
2023-01-17T14:20:42.204Z,4.71
2023-01-17T14:23:29.715Z,4.65
2023-01-17T14:25:59.967Z,4.70
2023-01-17T14:28:26.356Z,4.65
2023-01-17T14:30:56.464Z,4.60
2023-01-17T14:33:35.342Z,4.54
2023-01-17T14:36:05.605Z,4.50
2023-01-17T14:38:34.044Z,4.51
2023-01-17T14:41:09.708Z,4.43
2023-01-17T14:43:49.102Z,4.42
2023-01-17T14:46:33.697Z,4.40
2023-01-17T14:49:20.757Z,4.33
2023-01-17T14:52:04.650Z,4.29
2023-01-17T14:54:31.245Z,4.28
2023-01-17T14:57:14.545Z,4.25
2023-01-17T14:59:40.995Z,4.25
2023-01-17T15:02:16.326Z,4.20
2023-01-17T15:04:43.238Z,4.16
2023-01-17T15:07:16.640Z,4.14
2023-01-17T15:09:44.661Z,4.08
2023-01-17T15:12:14.437Z,4.04
2023-01-17T15:14:44.869Z,4.04
2023-01-17T15:17:20.801Z,3.97
2023-01-17T15:19:57.022Z,3.99
2023-01-17T15:22:25.903Z,3.96
2023-01-17T15:24:53.710Z,3.89
2023-01-17T15:27:20.757Z,3.88
2023-01-17T15:29:47.881Z,3.85
2023-01-17T15:32:22.967Z,3.82
2023-01-17T15:34:51.399Z,3.82
2023-01-17T15:37:27.597Z,3.75
2023-01-17T15:40:17.889Z,3.72
2023-01-17T15:42:47.832Z,3.72
2023-01-17T15:45:20.745Z,3.67
2023-01-17T15:47:49.101Z,3.58
2023-01-17T15:50:26.291Z,3.59
2023-01-17T15:52:55.821Z,3.60
2023-01-17T15:55:23.812Z,3.60
2023-01-17T15:57:50.330Z,3.54
2023-01-17T16:00:23.225Z,3.50
2023-01-17T16:02:58.673Z,3.50
2023-01-17T16:05:25.756Z,3.49
2023-01-17T16:08:02.618Z,3.50
2023-01-17T16:10:36.278Z,3.52
2023-01-17T16:13:05.803Z,3.49
2023-01-17T16:15:32.624Z,3.46
2023-01-17T16:18:04.134Z,3.44
2023-01-17T16:20:33.400Z,3.42
2023-01-17T16:23:00.616Z,3.41
2023-01-17T16:25:32.320Z,3.39
2023-01-17T16:28:00.032Z,3.39
2023-01-17T16:30:27.689Z,3.39
2023-01-17T16:32:56.497Z,3.38
2023-01-17T16:35:25.486Z,3.37
2023-01-17T16:38:01.095Z,3.37
2023-01-17T16:40:30.915Z,3.39
2023-01-17T16:42:58.724Z,3.37
2023-01-17T16:45:25.726Z,3.36
2023-01-17T16:47:53.653Z,3.35
2023-01-17T16:50:23.224Z,3.34
2023-01-17T16:52:51.650Z,3.34
2023-01-17T16:55:22.133Z,3.36
2023-01-17T16:57:54.137Z,3.35
2023-01-17T17:00:22.538Z,3.35
2023-01-17T17:02:53.048Z,3.36
2023-01-17T17:05:20.052Z,3.35
2023-01-17T17:07:50.759Z,3.35
2023-01-17T17:10:20.403Z,3.36
2023-01-17T17:12:46.958Z,3.35
2023-01-17T17:15:14.110Z,3.36
2023-01-17T17:17:43.013Z,3.33
2023-01-17T17:20:13.026Z,3.34
2023-01-17T17:22:40.680Z,3.33
2023-01-17T17:25:07.706Z,3.35
2023-01-17T17:27:34.149Z,3.35
2023-01-17T17:30:00.652Z,3.35
2023-01-17T17:32:28.089Z,3.38
2023-01-17T17:34:54.536Z,3.38
2023-01-17T17:37:22.778Z,3.33
2023-01-17T17:39:49.809Z,3.28
2023-01-17T17:42:16.294Z,3.21
2023-01-17T17:44:42.683Z,3.18
2023-01-17T17:47:11.610Z,3.11
2023-01-17T17:49:38.162Z,3.03
2023-01-17T17:52:07.285Z,2.88
2023-01-17T17:54:34.063Z,2.70
2023-01-17T17:57:00.523Z,2.56
2023-01-17T17:59:29.756Z,2.47
2023-01-17T18:01:56.319Z,2.41
2023-01-17T18:04:22.818Z,2.41
2023-01-17T18:06:49.339Z,2.41
2023-01-17T18:09:16.317Z,2.42
2023-01-17T18:11:43.809Z,2.42
2023-01-17T18:14:15.242Z,2.37
2023-01-17T18:16:44.861Z,2.38
2023-01-17T18:19:15.198Z,2.38
2023-01-17T18:21:41.743Z,2.37
2023-01-17T18:24:10.737Z,2.35
2023-01-17T18:26:44.340Z,2.36
2023-01-17T18:29:14.853Z,2.25
2023-01-17T18:31:42.825Z,2.19
2023-01-17T18:34:12.243Z,2.11
2023-01-17T18:36:39.029Z,2.08
2023-01-17T18:39:12.008Z,2.07
2023-01-17T18:41:38.581Z,2.05
2023-01-17T18:44:05.964Z,2.06
2023-01-17T18:46:33.843Z,2.09
2023-01-17T18:49:00.713Z,2.12
2023-01-17T18:51:31.910Z,2.12
2023-01-17T18:54:02.735Z,2.15
2023-01-17T18:56:31.581Z,2.16
2023-01-17T18:58:58.279Z,2.15
2023-01-17T19:01:30.215Z,2.12
2023-01-17T19:03:58.875Z,2.12
2023-01-17T19:06:30.283Z,2.14
2023-01-17T19:08:58.309Z,2.11
2023-01-17T19:11:25.424Z,2.10
2023-01-17T19:13:53.176Z,2.11
2023-01-17T19:16:26.365Z,2.13
2023-01-17T19:18:53.225Z,2.10
2023-01-17T19:21:22.586Z,2.06
2023-01-17T19:23:50.544Z,2.01
2023-01-17T19:26:19.867Z,2.00
2023-01-17T19:28:48.434Z,1.93
2023-01-17T19:31:22.208Z,1.85
2023-01-17T19:33:50.815Z,1.78
2023-01-17T19:36:23.455Z,1.67
2023-01-17T19:39:03.572Z,1.59
2023-01-17T19:41:31.236Z,1.59
2023-01-17T19:44:03.481Z,1.60
2023-01-17T19:46:30.284Z,1.57
2023-01-17T19:48:57.699Z,1.54
2023-01-17T19:51:25.417Z,1.56
2023-01-17T19:53:53.518Z,1.60
2023-01-17T19:56:22.638Z,1.62
2023-01-17T19:58:49.263Z,1.60
2023-01-17T20:01:22.120Z,1.57
2023-01-17T20:03:49.653Z,1.60
2023-01-17T20:06:19.419Z,1.59
2023-01-17T20:08:46.210Z,1.60
2023-01-17T20:11:19.606Z,1.59
2023-01-17T20:13:47.088Z,1.62
2023-01-17T20:16:18.426Z,1.61
2023-01-17T20:18:45.645Z,1.56
2023-01-17T20:21:15.133Z,1.52
2023-01-17T20:23:43.373Z,1.48
2023-01-17T20:26:11.629Z,1.42
2023-01-17T20:28:40.156Z,1.43
2023-01-17T20:31:15.494Z,1.39
2023-01-17T20:33:43.687Z,1.36
2023-01-17T20:36:13.911Z,1.40
2023-01-17T20:38:43.842Z,1.44
2023-01-17T20:41:17.392Z,1.42
2023-01-17T20:43:46.689Z,1.49
2023-01-17T20:46:13.944Z,1.49
2023-01-17T20:48:45.974Z,1.53
2023-01-17T20:51:13.554Z,1.60
2023-01-17T20:53:41.624Z,1.64
2023-01-17T20:56:09.309Z,1.67
2023-01-17T20:58:35.846Z,1.63
2023-01-17T21:01:02.555Z,1.61
2023-01-17T21:03:29.330Z,1.56
2023-01-17T21:06:04.781Z,1.54
2023-01-17T21:08:36.442Z,1.52
2023-01-17T21:11:04.221Z,1.48
2023-01-17T21:13:31.554Z,1.44
2023-01-17T21:15:58.157Z,1.45
2023-01-17T21:18:26.574Z,1.52
2023-01-17T21:20:53.625Z,1.60
2023-01-17T21:23:20.636Z,1.62
2023-01-17T21:25:57.754Z,1.56
2023-01-17T21:28:25.971Z,1.58
2023-01-17T21:30:53.315Z,1.61
2023-01-17T21:33:21.422Z,1.64
2023-01-17T21:35:47.981Z,1.65
2023-01-17T21:38:14.553Z,1.64
2023-01-17T21:40:42.304Z,1.58
2023-01-17T21:43:09.728Z,1.60
2023-01-17T21:45:37.615Z,1.64
2023-01-17T21:48:04.936Z,1.62
2023-01-17T21:50:33.609Z,1.58
2023-01-17T21:53:00.606Z,1.56
2023-01-17T21:55:45.788Z,1.59
2023-01-17T21:58:32.036Z,1.56
2023-01-17T22:01:08.789Z,1.63
2023-01-17T22:03:35.988Z,1.64
2023-01-17T22:06:04.193Z,1.61
2023-01-17T22:08:38.149Z,1.53
2023-01-17T22:11:07.372Z,1.52
2023-01-17T22:13:34.846Z,1.48
2023-01-17T22:16:03.506Z,1.49
2023-01-17T22:18:30.613Z,1.52
2023-01-17T22:20:57.737Z,1.55
2023-01-17T22:23:24.230Z,1.57
2023-01-17T22:25:50.619Z,1.47
2023-01-17T22:28:17.834Z,1.42
2023-01-17T22:30:44.405Z,1.41
2023-01-17T22:33:10.797Z,1.45
2023-01-17T22:35:37.143Z,1.40
2023-01-17T22:38:03.584Z,1.38
2023-01-17T22:40:31.512Z,1.47
2023-01-17T22:42:58.170Z,1.49
2023-01-17T22:45:25.997Z,1.43
2023-01-17T22:47:52.404Z,1.37
2023-01-17T22:50:18.855Z,1.34
2023-01-17T22:52:45.235Z,1.31
2023-01-17T22:55:12.129Z,1.27
2023-01-17T22:57:38.648Z,1.27
2023-01-17T23:00:14.318Z,1.22
2023-01-17T23:02:44.320Z,1.18
2023-01-17T23:05:11.022Z,1.17
2023-01-17T23:07:42.865Z,1.17
2023-01-17T23:10:33.797Z,1.16
2023-01-17T23:13:00.245Z,1.18
2023-01-17T23:15:45.343Z,1.21
2023-01-17T23:18:30.500Z,1.16
2023-01-17T23:20:56.914Z,1.14
2023-01-17T23:23:23.285Z,1.13
2023-01-17T23:25:49.801Z,1.15
2023-01-17T23:28:20.704Z,1.16
2023-01-17T23:30:48.075Z,1.20
2023-01-17T23:33:16.481Z,1.20
2023-01-17T23:35:46.089Z,1.17
2023-01-17T23:38:26.025Z,1.13
2023-01-17T23:41:12.073Z,1.11
2023-01-17T23:43:38.450Z,1.09
2023-01-17T23:46:05.556Z,1.09
2023-01-17T23:48:32.001Z,1.13
2023-01-17T23:51:09.456Z,1.14
2023-01-17T23:53:37.977Z,1.16
2023-01-17T23:56:24.856Z,1.22
2023-01-17T23:58:51.293Z,1.23
